createdAt,value
2023-04-22T00:00:23.937Z,101103.66
2023-04-22T00:02:27.548Z,101099.34
2023-04-22T00:04:31.155Z,101094.22
2023-04-22T00:06:34.628Z,101083.81
2023-04-22T00:08:38.033Z,101088.31
2023-04-22T00:10:41.382Z,101087.56
2023-04-22T00:12:44.721Z,101077.16
2023-04-22T00:14:49.525Z,101088.56
2023-04-22T00:16:52.851Z,101080.88
2023-04-22T00:18:56.160Z,101073.97
2023-04-22T00:20:59.467Z,101066.19
2023-04-22T00:23:02.733Z,101066.19
2023-04-22T00:25:06.968Z,101062.84
2023-04-22T00:27:10.320Z,101063.75
2023-04-22T00:29:13.660Z,101054.22
2023-04-22T00:31:18.464Z,101054.44
2023-04-22T00:33:21.773Z,101057.13
2023-04-22T00:35:25.202Z,101054.59
2023-04-22T00:37:28.745Z,101046.00
2023-04-22T00:39:32.334Z,101052.91
2023-04-22T00:41:35.936Z,101046.84
2023-04-22T00:43:39.221Z,101046.00
2023-04-22T00:45:43.945Z,101039.06
2023-04-22T00:47:49.489Z,101037.41
2023-04-22T00:49:53.113Z,101042.63
2023-04-22T00:51:56.418Z,101042.81
2023-04-22T00:54:01.898Z,101030.66
2023-04-22T00:56:05.721Z,101034.19
2023-04-22T00:58:09.902Z,101028.28
2023-04-22T01:00:13.929Z,101033.63
2023-04-22T01:02:17.410Z,101031.94
2023-04-22T01:04:23.034Z,101032.94
2023-04-22T01:06:26.926Z,101033.03
2023-04-22T01:08:30.910Z,101026.09
2023-04-22T01:10:34.285Z,101031.34
2023-04-22T01:12:37.618Z,101020.88
2023-04-22T01:14:41.115Z,101025.28
2023-04-22T01:16:45.542Z,101018.34
2023-04-22T01:18:49.032Z,101012.28
2023-04-22T01:20:54.106Z,101015.66
2023-04-22T01:22:58.227Z,101012.19
2023-04-22T01:25:03.758Z,101026.09
2023-04-22T01:27:07.348Z,101008.72
2023-04-22T01:29:10.848Z,101011.47
2023-04-22T01:31:14.660Z,101005.38
2023-04-22T01:33:18.412Z,101002.03
2023-04-22T01:35:22.012Z,101002.03
2023-04-22T01:37:25.319Z,101003.88
2023-04-22T01:39:28.825Z,101006.59
2023-04-22T01:41:34.362Z,100998.81
2023-04-22T01:43:37.992Z,100999.91
2023-04-22T01:45:41.382Z,100996.56
2023-04-22T01:47:45.303Z,100990.56
2023-04-22T01:49:48.706Z,100992.41
2023-04-22T01:51:52.012Z,100993.25
2023-04-22T01:53:56.602Z,100994.09
2023-04-22T01:56:01.122Z,100981.97
2023-04-22T01:58:06.602Z,100980.28
2023-04-22T02:00:11.304Z,100978.69
2023-04-22T02:02:21.222Z,100981.28
2023-04-22T02:04:24.608Z,100981.38
2023-04-22T02:06:28.245Z,100972.78
2023-04-22T02:08:31.818Z,100971.00
2023-04-22T02:10:35.242Z,100970.16
2023-04-22T02:12:38.657Z,100968.50
2023-04-22T02:14:43.414Z,100962.31
2023-04-22T02:16:47.368Z,100957.09
2023-04-22T02:18:50.669Z,100956.16
2023-04-22T02:20:53.986Z,100954.47
2023-04-22T02:22:57.348Z,100952.81
2023-04-22T02:25:01.397Z,100949.44
2023-04-22T02:27:04.831Z,100953.06
2023-04-22T02:29:08.455Z,100954.09
2023-04-22T02:31:13.228Z,100949.03
2023-04-22T02:33:17.285Z,100949.13
2023-04-22T02:35:20.930Z,100944.91
2023-04-22T02:37:27.282Z,100941.53
2023-04-22T02:39:31.536Z,100936.31
2023-04-22T02:41:35.103Z,100936.31
2023-04-22T02:43:38.454Z,100925.84
2023-04-22T02:45:41.979Z,100926.69
2023-04-22T02:47:47.011Z,100920.63
2023-04-22T02:49:51.625Z,100915.41
2023-04-22T02:51:55.233Z,100920.63
2023-04-22T02:53:58.588Z,100921.47
2023-04-22T02:56:02.035Z,100923.31
2023-04-22T02:58:05.372Z,100925.09
2023-04-22T03:00:10.431Z,100926.03
2023-04-22T03:02:13.891Z,100929.56
2023-04-22T03:04:36.305Z,100922.66
2023-04-22T03:06:39.637Z,100922.66
2023-04-22T03:08:42.965Z,100922.66
2023-04-22T03:10:46.329Z,100913.88
2023-04-22T03:12:50.182Z,100911.28
2023-04-22T03:14:53.606Z,100910.34
2023-04-22T03:16:58.874Z,100904.19
2023-04-22T03:19:02.820Z,100900.56
2023-04-22T03:21:08.590Z,100893.47
2023-04-22T03:23:11.952Z,100889.09
2023-04-22T03:25:15.419Z,100888.16
2023-04-22T03:27:28.276Z,100891.69
2023-04-22T03:29:31.701Z,100887.41
2023-04-22T03:31:35.352Z,100876.94
2023-04-22T03:33:38.788Z,100890.94
2023-04-22T03:35:49.839Z,100889.25
2023-04-22T03:37:55.365Z,100890.19
2023-04-22T03:40:05.670Z,100895.50
2023-04-22T03:42:09.321Z,100887.75
2023-04-22T03:44:17.520Z,100882.59
2023-04-22T03:46:22.056Z,100878.31
2023-04-22T03:49:00.937Z,100875.78
2023-04-22T03:51:08.795Z,100879.31
2023-04-22T03:53:15.311Z,100881.22
2023-04-22T03:55:18.680Z,100876.81
2023-04-22T03:57:22.625Z,100869.06
2023-04-22T03:59:25.979Z,100872.63
2023-04-22T04:01:29.235Z,100869.25
2023-04-22T04:03:36.558Z,100867.56
2023-04-22T04:05:40.294Z,100864.19
2023-04-22T04:07:44.049Z,100863.34
2023-04-22T04:09:48.731Z,100855.50
2023-04-22T04:11:54.526Z,100851.97
2023-04-22T04:13:57.809Z,100848.50
2023-04-22T04:16:05.219Z,100850.19
2023-04-22T04:18:09.744Z,100850.19
2023-04-22T04:20:13.887Z,100851.22
2023-04-22T04:22:17.060Z,100847.75
2023-04-22T04:24:28.344Z,100853.91
2023-04-22T04:26:39.755Z,100849.63
2023-04-22T04:28:49.276Z,100847.84
2023-04-22T04:30:54.701Z,100843.47
2023-04-22T04:32:58.727Z,100840.75
2023-04-22T04:35:03.269Z,100833.75
2023-04-22T04:37:06.640Z,100838.06
2023-04-22T04:39:30.842Z,100834.50
2023-04-22T04:41:34.627Z,100837.88
2023-04-22T04:43:40.977Z,100846.47
2023-04-22T04:45:59.544Z,100842.09
2023-04-22T04:48:10.082Z,100844.63
2023-04-22T04:50:17.125Z,100840.13
2023-04-22T04:52:21.244Z,100832.09
2023-04-22T04:54:24.544Z,100827.63
2023-04-22T04:56:28.178Z,100834.34
2023-04-22T04:58:31.783Z,100842.78
2023-04-22T05:00:54.799Z,100826.81
2023-04-22T05:02:59.102Z,100827.31
2023-04-22T05:05:02.627Z,100845.31
2023-04-22T05:07:06.590Z,100837.19
2023-04-22T05:09:11.589Z,100830.00
2023-04-22T05:11:14.844Z,100820.97
2023-04-22T05:13:20.383Z,100828.44
2023-04-22T05:15:25.650Z,100828.97
2023-04-22T05:17:30.542Z,100826.09
2023-04-22T05:19:33.848Z,100830.13
2023-04-22T05:21:38.307Z,100830.69
2023-04-22T05:23:41.550Z,100841.72
2023-04-22T05:25:44.924Z,100839.44
2023-04-22T05:27:50.187Z,100841.69
2023-04-22T05:29:55.260Z,100835.13
2023-04-22T05:32:03.185Z,100819.91
2023-04-22T05:34:08.543Z,100809.00
2023-04-22T05:36:11.864Z,100810.31
2023-04-22T05:38:15.186Z,100808.06
2023-04-22T05:40:19.280Z,100803.22
2023-04-22T05:42:22.671Z,100813.47
2023-04-22T05:44:26.169Z,100816.53
2023-04-22T05:46:29.777Z,100809.22
2023-04-22T05:48:33.145Z,100804.44
2023-04-22T05:50:41.419Z,100805.78
2023-04-22T05:52:45.178Z,100802.75
2023-04-22T05:54:51.330Z,100808.44
2023-04-22T05:56:54.619Z,100803.66
2023-04-22T05:58:57.863Z,100803.22
2023-04-22T06:01:01.749Z,100806.28
2023-04-22T06:03:28.279Z,100798.84
2023-04-22T06:05:33.440Z,100800.13
2023-04-22T06:07:38.090Z,100801.34
2023-04-22T06:09:43.337Z,100799.28
2023-04-22T06:11:46.808Z,100797.19
2023-04-22T06:13:50.615Z,100802.84
2023-04-22T06:15:54.226Z,100801.56
2023-04-22T06:17:57.573Z,100798.53
2023-04-22T06:20:00.879Z,100793.69
2023-04-22T06:22:04.159Z,100789.72
2023-04-22T06:24:10.344Z,100788.31
2023-04-22T06:26:14.017Z,100791.25
2023-04-22T06:28:17.281Z,100787.25
2023-04-22T06:30:22.233Z,100793.75
2023-04-22T06:32:25.524Z,100794.13
2023-04-22T06:34:28.887Z,100790.16
2023-04-22T06:36:33.778Z,100796.66
2023-04-22T06:38:38.837Z,100792.63
2023-04-22T06:41:15.805Z,100790.28
2023-04-22T06:43:21.226Z,100795.09
2023-04-22T06:45:43.465Z,100799.09
2023-04-22T06:48:05.487Z,100795.88
2023-04-22T06:50:22.811Z,100794.47
2023-04-22T06:52:32.013Z,100787.00
2023-04-22T06:54:35.686Z,100796.94
2023-04-22T06:56:40.611Z,100791.94
2023-04-22T06:58:43.967Z,100796.41
2023-04-22T07:00:47.420Z,100783.41
2023-04-22T07:02:50.924Z,100790.81
2023-04-22T07:04:54.277Z,100793.72
2023-04-22T07:06:57.594Z,100785.34
2023-04-22T07:09:01.522Z,100792.66
2023-04-22T07:11:04.899Z,100793.03
2023-04-22T07:13:20.176Z,100783.09
2023-04-22T07:15:23.458Z,100794.88
2023-04-22T07:17:27.098Z,100794.53
2023-04-22T07:19:32.493Z,100794.13
2023-04-22T07:21:38.311Z,100791.16
2023-04-22T07:23:41.829Z,100791.75
2023-04-22T07:25:45.146Z,100792.34
2023-04-22T07:27:48.487Z,100791.16
2023-04-22T07:29:55.500Z,100782.91
2023-04-22T07:31:59.528Z,100787.56
2023-04-22T07:34:03.186Z,100789.72
2023-04-22T07:36:07.978Z,100784.09
2023-04-22T07:38:14.528Z,100786.34
2023-04-22T07:40:19.196Z,100775.34
2023-04-22T07:42:25.125Z,100773.16
2023-04-22T07:44:30.295Z,100772.66
2023-04-22T07:46:35.592Z,100768.81
2023-04-22T07:48:39.637Z,100768.34
2023-04-22T07:50:42.855Z,100771.44
2023-04-22T07:52:46.766Z,100768.16
2023-04-22T07:54:51.428Z,100766.59
2023-04-22T07:56:55.088Z,100777.34
2023-04-22T07:58:58.330Z,100761.72
2023-04-22T08:01:01.771Z,100766.50
2023-04-22T08:03:10.457Z,100770.44
2023-04-22T08:05:13.952Z,100772.44
2023-04-22T08:07:32.653Z,100757.91
2023-04-22T08:09:37.461Z,100751.41
2023-04-22T08:11:41.323Z,100758.81
2023-04-22T08:13:45.613Z,100758.44
2023-04-22T08:15:48.937Z,100751.94
2023-04-22T08:17:52.340Z,100746.81
2023-04-22T08:19:56.970Z,100744.50
2023-04-22T08:22:00.286Z,100745.78
2023-04-22T08:24:03.584Z,100746.94
2023-04-22T08:26:08.329Z,100749.03
2023-04-22T08:28:11.654Z,100753.06
2023-04-22T08:30:15.323Z,100750.88
2023-04-22T08:32:19.850Z,100742.56
2023-04-22T08:34:24.853Z,100742.03
2023-04-22T08:36:29.721Z,100738.72
2023-04-22T08:38:32.999Z,100736.25
2023-04-22T08:40:36.616Z,100731.88
2023-04-22T08:42:41.184Z,100729.34
2023-04-22T08:44:45.943Z,100729.53
2023-04-22T08:46:50.148Z,100734.97
2023-04-22T08:48:55.301Z,100737.75
2023-04-22T08:50:59.426Z,100726.47
2023-04-22T08:53:04.087Z,100727.47
2023-04-22T08:55:08.397Z,100733.84
2023-04-22T08:57:12.193Z,100730.53
2023-04-22T08:59:15.517Z,100729.69
2023-04-22T09:01:19.195Z,100726.31
2023-04-22T09:03:23.460Z,100739.69
2023-04-22T09:05:28.721Z,100737.19
2023-04-22T09:07:33.290Z,100732.03
2023-04-22T09:09:39.009Z,100730.50
2023-04-22T09:11:43.034Z,100726.00
2023-04-22T09:13:46.288Z,100733.09
2023-04-22T09:15:49.507Z,100725.94
2023-04-22T09:17:53.566Z,100735.69
2023-04-22T09:19:59.161Z,100729.50
2023-04-22T09:22:03.010Z,100733.94
2023-04-22T09:24:08.718Z,100724.41
2023-04-22T09:26:15.101Z,100730.81
2023-04-22T09:28:20.190Z,100728.22
2023-04-22T09:30:26.204Z,100723.19
2023-04-22T09:32:29.491Z,100725.09
2023-04-22T09:34:32.783Z,100721.56
2023-04-22T09:36:37.743Z,100727.09
2023-04-22T09:38:41.139Z,100719.38
2023-04-22T09:40:45.635Z,100721.81
2023-04-22T09:42:54.960Z,100716.72
2023-04-22T09:45:01.974Z,100710.53
2023-04-22T09:47:05.766Z,100710.44
2023-04-22T09:49:09.067Z,100712.16
2023-04-22T09:51:17.308Z,100714.75
2023-04-22T09:53:21.733Z,100713.78
2023-04-22T09:55:26.409Z,100702.25
2023-04-22T09:57:29.738Z,100695.38
2023-04-22T09:59:34.509Z,100695.41
2023-04-22T10:01:39.490Z,100690.31
2023-04-22T10:03:43.108Z,100692.19
2023-04-22T10:05:46.760Z,100685.91
2023-04-22T10:07:50.247Z,100692.25
2023-04-22T10:09:53.566Z,100683.50
2023-04-22T10:11:58.700Z,100675.56
2023-04-22T10:14:02.102Z,100674.59
2023-04-22T10:16:07.565Z,100663.81
2023-04-22T10:18:14.820Z,100673.81
2023-04-22T10:20:20.168Z,100664.38
2023-04-22T10:22:23.915Z,100663.72
2023-04-22T10:24:28.377Z,100664.06
2023-04-22T10:26:41.836Z,100666.09
2023-04-22T10:28:45.619Z,100668.94
2023-04-22T10:30:49.372Z,100663.75
2023-04-22T10:32:54.555Z,100652.47
2023-04-22T10:35:12.602Z,100651.81
2023-04-22T10:37:19.396Z,100649.50
2023-04-22T10:39:23.414Z,100647.63
2023-04-22T10:41:30.213Z,100643.16
2023-04-22T10:43:44.452Z,100642.78
2023-04-22T10:45:47.860Z,100643.78
2023-04-22T10:47:51.247Z,100638.31
2023-04-22T10:50:11.238Z,100639.16
2023-04-22T10:52:29.902Z,100642.78
2023-04-22T10:54:59.030Z,100637.09
2023-04-22T10:57:03.476Z,100631.09
2023-04-22T10:59:17.249Z,100627.72
2023-04-22T11:01:20.581Z,100624.53
2023-04-22T11:03:29.947Z,100616.69
2023-04-22T11:05:35.851Z,100619.69
2023-04-22T11:07:40.763Z,100610.97
2023-04-22T11:09:46.525Z,100612.28
2023-04-22T11:11:51.319Z,100607.91
2023-04-22T11:13:55.473Z,100604.75
2023-04-22T11:15:58.844Z,100603.25
2023-04-22T11:18:02.216Z,100598.50
2023-04-22T11:20:08.022Z,100587.59
2023-04-22T11:22:14.455Z,100583.06
2023-04-22T11:24:20.710Z,100587.13
2023-04-22T11:26:35.136Z,100588.53
2023-04-22T11:28:47.647Z,100577.97
2023-04-22T11:30:51.377Z,100583.13
2023-04-22T11:32:57.040Z,100580.47
2023-04-22T11:35:04.606Z,100585.78
2023-04-22T11:37:07.873Z,100583.78
2023-04-22T11:39:15.187Z,100582.41
2023-04-22T11:41:23.189Z,100570.00
2023-04-22T11:43:26.570Z,100564.81
2023-04-22T11:45:31.346Z,100573.56
2023-04-22T11:47:35.787Z,100564.16
2023-04-22T11:49:40.092Z,100559.13
2023-04-22T11:52:00.898Z,100562.72
2023-04-22T11:54:04.900Z,100555.44
2023-04-22T11:56:09.612Z,100560.88
2023-04-22T11:58:14.594Z,100545.59
2023-04-22T12:00:18.561Z,100550.81
2023-04-22T12:02:21.960Z,100556.72
2023-04-22T12:04:25.417Z,100548.13
2023-04-22T12:06:32.384Z,100539.41
2023-04-22T12:08:39.788Z,100538.44
2023-04-22T12:10:44.769Z,100541.47
2023-04-22T12:12:51.598Z,100537.28
2023-04-22T12:14:55.012Z,100534.09
2023-04-22T12:16:58.402Z,100527.00
2023-04-22T12:19:05.045Z,100534.56
2023-04-22T12:21:11.191Z,100535.88
2023-04-22T12:23:15.920Z,100525.50
2023-04-22T12:25:20.563Z,100530.41
2023-04-22T12:27:23.863Z,100529.56
2023-04-22T12:29:35.070Z,100524.97
2023-04-22T12:31:38.735Z,100525.91
2023-04-22T12:33:42.428Z,100521.53
2023-04-22T12:35:47.139Z,100525.94
2023-04-22T12:37:51.286Z,100513.88
2023-04-22T12:39:55.711Z,100509.84
2023-04-22T12:41:59.055Z,100505.06
2023-04-22T12:44:02.388Z,100498.97
2023-04-22T12:46:08.149Z,100498.75
2023-04-22T12:48:11.782Z,100504.31
2023-04-22T12:50:15.167Z,100489.53
2023-04-22T12:52:18.512Z,100496.88
2023-04-22T12:54:22.177Z,100495.19
2023-04-22T12:56:25.730Z,100491.00
2023-04-22T12:58:29.125Z,100485.31
2023-04-22T13:00:32.454Z,100492.78
2023-04-22T13:02:37.351Z,100479.22
2023-04-22T13:04:40.985Z,100477.56
2023-04-22T13:06:44.492Z,100479.97
2023-04-22T13:08:48.712Z,100477.00
2023-04-22T13:10:52.069Z,100474.72
2023-04-22T13:13:00.544Z,100480.06
2023-04-22T13:15:13.602Z,100466.88
2023-04-22T13:17:16.939Z,100471.97
2023-04-22T13:19:21.642Z,100466.69
2023-04-22T13:21:24.968Z,100466.50
2023-04-22T13:23:28.339Z,100467.09
2023-04-22T13:25:31.827Z,100463.69
2023-04-22T13:27:35.283Z,100463.19
2023-04-22T13:29:39.234Z,100457.28
2023-04-22T13:31:44.039Z,100465.03
2023-04-22T13:33:47.376Z,100460.63
2023-04-22T13:35:52.208Z,100454.03
2023-04-22T13:37:55.499Z,100444.53
2023-04-22T13:39:58.867Z,100443.53
2023-04-22T13:42:02.890Z,100442.56
2023-04-22T13:44:06.281Z,100441.88
2023-04-22T13:46:09.633Z,100430.69
2023-04-22T13:48:13.089Z,100435.34
2023-04-22T13:50:16.698Z,100436.38
2023-04-22T13:52:21.822Z,100441.28
2023-04-22T13:54:26.125Z,100432.34
2023-04-22T13:56:29.435Z,100427.13
2023-04-22T13:58:32.860Z,100423.16
2023-04-22T14:00:36.737Z,100424.56
2023-04-22T14:02:40.370Z,100421.19
2023-04-22T14:04:43.787Z,100422.81
2023-04-22T14:06:47.101Z,100421.72
2023-04-22T14:08:51.881Z,100415.28
2023-04-22T14:10:55.607Z,100407.75
2023-04-22T14:12:58.884Z,100410.22
2023-04-22T14:15:02.500Z,100406.09
2023-04-22T14:17:06.197Z,100406.09
2023-04-22T14:19:09.656Z,100396.59
2023-04-22T14:21:13.554Z,100396.59
2023-04-22T14:23:17.000Z,100398.56
2023-04-22T14:25:21.973Z,100396.22
2023-04-22T14:27:25.364Z,100386.94
2023-04-22T14:29:29.961Z,100388.19
2023-04-22T14:31:33.392Z,100384.38
2023-04-22T14:33:37.073Z,100377.22
2023-04-22T14:35:40.976Z,100371.53
2023-04-22T14:37:45.216Z,100370.03
2023-04-22T14:39:48.597Z,100366.66
2023-04-22T14:41:53.294Z,100371.66
2023-04-22T14:43:56.731Z,100364.88
2023-04-22T14:46:00.319Z,100367.13
2023-04-22T14:48:03.799Z,100362.16
2023-04-22T14:50:08.217Z,100358.19
2023-04-22T14:52:11.929Z,100365.53
2023-04-22T14:54:15.252Z,100348.66
2023-04-22T14:56:18.882Z,100348.75
2023-04-22T14:58:23.959Z,100344.00
2023-04-22T15:00:28.015Z,100343.16
2023-04-22T15:02:33.269Z,100344.81
2023-04-22T15:04:37.080Z,100339.88
2023-04-22T15:06:40.470Z,100331.81
2023-04-22T15:08:43.793Z,100334.06
2023-04-22T15:10:47.185Z,100330.34
2023-04-22T15:12:50.610Z,100335.72
2023-04-22T15:14:55.545Z,100335.72
2023-04-22T15:16:59.004Z,100328.06
2023-04-22T15:19:02.331Z,100329.47
2023-04-22T15:21:10.198Z,100318.16
2023-04-22T15:23:13.535Z,100316.75
2023-04-22T15:25:18.238Z,100314.34
2023-04-22T15:27:21.909Z,100304.19
2023-04-22T15:29:25.302Z,100321.53
2023-04-22T15:31:30.069Z,100310.09
2023-04-22T15:33:33.505Z,100304.78
2023-04-22T15:35:36.818Z,100311.41
2023-04-22T15:37:40.459Z,100301.91
2023-04-22T15:39:44.522Z,100296.53
2023-04-22T15:41:47.821Z,100296.06
2023-04-22T15:43:52.146Z,100301.41
2023-04-22T15:45:58.383Z,100295.56
2023-04-22T15:48:03.239Z,100293.38
2023-04-22T15:50:09.062Z,100292.47
2023-04-22T15:52:12.899Z,100293.22
2023-04-22T15:54:16.094Z,100291.09
2023-04-22T15:56:19.455Z,100288.94
2023-04-22T15:58:22.692Z,100287.66
2023-04-22T16:00:26.486Z,100286.28
2023-04-22T16:02:29.978Z,100285.78
2023-04-22T16:04:34.888Z,100284.47
2023-04-22T16:06:38.932Z,100277.78
2023-04-22T16:08:42.280Z,100278.13
2023-04-22T16:10:45.518Z,100275.75
2023-04-22T16:12:48.774Z,100279.56
2023-04-22T16:14:52.160Z,100283.19
2023-04-22T16:16:55.467Z,100280.44
2023-04-22T16:18:59.374Z,100277.28
2023-04-22T16:21:06.714Z,100270.88
2023-04-22T16:23:09.954Z,100270.22
2023-04-22T16:25:13.258Z,100269.41
2023-04-22T16:27:19.273Z,100265.25
2023-04-22T16:29:22.653Z,100258.63
2023-04-22T16:31:26.212Z,100262.72
2023-04-22T16:33:29.707Z,100261.44
2023-04-22T16:35:33.380Z,100261.81
2023-04-22T16:37:38.059Z,100255.19
2023-04-22T16:39:41.637Z,100248.56
2023-04-22T16:41:45.018Z,100245.63
2023-04-22T16:43:48.284Z,100248.47
2023-04-22T16:45:51.607Z,100238.47
2023-04-22T16:47:54.902Z,100240.84
2023-04-22T16:49:58.195Z,100246.34
2023-04-22T16:52:01.442Z,100246.84
2023-04-22T16:54:06.372Z,100244.75
2023-04-22T16:56:09.607Z,100237.59
2023-04-22T16:58:12.946Z,100242.19
2023-04-22T17:00:16.650Z,100241.00
2023-04-22T17:02:20.111Z,100241.81
2023-04-22T17:04:23.872Z,100234.19
2023-04-22T17:06:28.029Z,100226.94
2023-04-22T17:08:31.423Z,100227.41
2023-04-22T17:10:41.364Z,100234.91
2023-04-22T17:12:46.367Z,100234.75
2023-04-22T17:14:50.851Z,100230.91
2023-04-22T17:16:54.181Z,100232.06
2023-04-22T17:18:57.370Z,100227.81
2023-04-22T17:21:00.575Z,100225.25
2023-04-22T17:23:04.513Z,100230.69
2023-04-22T17:25:08.474Z,100225.28
2023-04-22T17:27:15.084Z,100222.31
2023-04-22T17:29:21.506Z,100225.69
2023-04-22T17:31:25.158Z,100221.91
2023-04-22T17:33:29.175Z,100217.34
2023-04-22T17:35:32.385Z,100219.91
2023-04-22T17:37:35.622Z,100220.63
2023-04-22T17:39:39.944Z,100217.84
2023-04-22T17:41:43.308Z,100209.78
2023-04-22T17:43:48.052Z,100224.66
2023-04-22T17:45:51.408Z,100218.38
2023-04-22T17:47:55.308Z,100214.44
2023-04-22T17:49:58.624Z,100210.84
2023-04-22T17:52:01.851Z,100211.75
2023-04-22T17:54:05.458Z,100222.41
2023-04-22T17:56:08.844Z,100220.84
2023-04-22T17:58:12.343Z,100218.41
2023-04-22T18:00:18.185Z,100215.81
2023-04-22T18:02:22.083Z,100222.19
2023-04-22T18:04:26.554Z,100219.59
2023-04-22T18:06:29.854Z,100218.78
2023-04-22T18:08:33.069Z,100219.69
2023-04-22T18:10:36.277Z,100217.06
2023-04-22T18:12:39.839Z,100214.09
2023-04-22T18:14:43.303Z,100216.44
2023-04-22T18:16:48.099Z,100220.44
2023-04-22T18:18:51.390Z,100219.13
2023-04-22T18:20:58.590Z,100220.47
2023-04-22T18:23:02.228Z,100218.16
2023-04-22T18:25:06.491Z,100220.16
2023-04-22T18:27:10.011Z,100227.47
2023-04-22T18:29:13.365Z,100227.81
2023-04-22T18:31:16.664Z,100227.16
2023-04-22T18:33:21.308Z,100230.16
2023-04-22T18:35:24.683Z,100230.50
2023-04-22T18:37:30.784Z,100233.31
2023-04-22T18:39:34.045Z,100245.13
2023-04-22T18:41:38.618Z,100242.81
2023-04-22T18:43:42.098Z,100247.47
2023-04-22T18:45:45.476Z,100240.84
2023-04-22T18:47:48.715Z,100239.53
2023-04-22T18:49:53.357Z,100238.19
2023-04-22T18:51:56.985Z,100242.19
2023-04-22T18:54:01.449Z,100247.88
2023-04-22T18:56:04.818Z,100245.38
2023-04-22T18:58:08.121Z,100246.53
2023-04-22T19:00:13.114Z,100244.22
2023-04-22T19:02:17.166Z,100246.38
2023-04-22T19:04:21.014Z,100249.19
2023-04-22T19:06:27.280Z,100246.88
2023-04-22T19:08:30.612Z,100256.00
2023-04-22T19:10:34.252Z,100267.78
2023-04-22T19:12:37.561Z,100278.72
2023-04-22T19:14:41.224Z,100302.00
2023-04-22T19:16:44.790Z,100297.66
2023-04-22T19:18:48.759Z,100289.16
2023-04-22T19:20:52.126Z,100272.41
2023-04-22T19:22:57.006Z,100269.06
2023-04-22T19:25:01.118Z,100270.00
2023-04-22T19:27:07.101Z,100265.34
2023-04-22T19:29:10.807Z,100264.13
2023-04-22T19:31:14.306Z,100266.22
2023-04-22T19:33:17.664Z,100260.53
2023-04-22T19:35:21.209Z,100252.88
2023-04-22T19:37:24.584Z,100261.75
2023-04-22T19:39:29.206Z,100253.94
2023-04-22T19:41:33.528Z,100262.66
2023-04-22T19:43:37.928Z,100256.34
2023-04-22T19:45:41.175Z,100256.94
2023-04-22T19:47:45.260Z,100254.44
2023-04-22T19:49:49.070Z,100252.31
2023-04-22T19:51:53.607Z,100261.22
2023-04-22T19:53:58.755Z,100319.47
2023-04-22T19:56:03.943Z,100336.03
2023-04-22T19:58:07.364Z,100340.00
2023-04-22T20:00:12.208Z,100354.28
2023-04-22T20:02:18.723Z,100363.59
2023-04-22T20:04:23.178Z,100358.00
2023-04-22T20:06:28.180Z,100356.03
2023-04-22T20:08:31.991Z,100350.72
2023-04-22T20:10:35.776Z,100354.38
2023-04-22T20:12:41.468Z,100353.69
2023-04-22T20:14:45.429Z,100348.69
2023-04-22T20:16:49.920Z,100349.97
2023-04-22T20:18:53.804Z,100353.91
2023-04-22T20:20:59.062Z,100347.25
2023-04-22T20:23:09.788Z,100356.50
2023-04-22T20:25:14.867Z,100343.75
2023-04-22T20:27:18.124Z,100348.50
2023-04-22T20:29:23.253Z,100352.44
2023-04-22T20:31:26.766Z,100348.28
2023-04-22T20:33:30.158Z,100342.59
2023-04-22T20:35:35.721Z,100348.34
2023-04-22T20:37:40.167Z,100336.38
2023-04-22T20:39:44.895Z,100333.34
2023-04-22T20:41:49.044Z,100340.75
2023-04-22T20:43:52.446Z,100332.28
2023-04-22T20:45:57.070Z,100331.75
2023-04-22T20:48:00.426Z,100338.03
2023-04-22T20:50:04.312Z,100331.56
2023-04-22T20:52:08.317Z,100333.50
2023-04-22T20:54:25.402Z,100327.69
2023-04-22T20:56:32.533Z,100334.25
2023-04-22T20:58:35.739Z,100339.84
2023-04-22T21:00:39.174Z,100339.16
2023-04-22T21:02:45.516Z,100344.72
2023-04-22T21:04:49.292Z,100344.88
2023-04-22T21:06:54.627Z,100344.19
2023-04-22T21:08:58.256Z,100343.50
2023-04-22T21:11:01.978Z,100340.22
2023-04-22T21:13:05.687Z,100346.47
2023-04-22T21:15:10.225Z,100349.25
2023-04-22T21:17:21.658Z,100341.47
2023-04-22T21:19:26.081Z,100353.03
2023-04-22T21:21:34.047Z,100348.03
2023-04-22T21:23:37.807Z,100348.19
2023-04-22T21:25:41.392Z,100350.28
2023-04-22T21:27:45.037Z,100349.59
2023-04-22T21:29:49.741Z,100347.94
2023-04-22T21:32:07.383Z,100349.88
2023-04-22T21:34:12.258Z,100346.56
2023-04-22T21:36:17.030Z,100351.16
2023-04-22T21:38:20.794Z,100355.75
2023-04-22T21:40:24.164Z,100348.00
2023-04-22T21:42:27.746Z,100355.25
2023-04-22T21:44:31.023Z,100352.75
2023-04-22T21:46:34.416Z,100349.41
2023-04-22T21:48:37.672Z,100354.97
2023-04-22T21:50:41.121Z,100348.31
2023-04-22T21:52:45.834Z,100350.28
2023-04-22T21:54:49.117Z,100344.31
2023-04-22T21:56:52.658Z,100344.59
2023-04-22T21:58:56.081Z,100346.41
2023-04-22T22:00:59.386Z,100349.19
2023-04-22T22:03:02.868Z,100351.97
2023-04-22T22:05:07.160Z,100349.47
2023-04-22T22:07:12.255Z,100356.75
2023-04-22T22:09:17.054Z,100360.34
2023-04-22T22:11:30.232Z,100349.22
2023-04-22T22:13:34.530Z,100356.44
2023-04-22T22:15:37.962Z,100353.94
2023-04-22T22:17:41.410Z,100357.84
2023-04-22T22:19:45.442Z,100355.47
2023-04-22T22:21:48.689Z,100352.97
2023-04-22T22:23:51.985Z,100354.09
2023-04-22T22:25:56.809Z,100358.69
2023-04-22T22:28:00.431Z,100355.34
2023-04-22T22:30:04.644Z,100355.50
2023-04-22T22:32:08.281Z,100348.72
2023-04-22T22:34:11.603Z,100351.66
2023-04-22T22:36:15.055Z,100341.38
2023-04-22T22:38:18.385Z,100349.44
2023-04-22T22:40:21.794Z,100347.91
2023-04-22T22:42:26.445Z,100354.31
2023-04-22T22:44:29.717Z,100347.50
2023-04-22T22:46:32.976Z,100348.47
2023-04-22T22:48:36.326Z,100344.28
2023-04-22T22:50:39.911Z,100347.06
2023-04-22T22:52:43.210Z,100345.41
2023-04-22T22:54:46.545Z,100341.09
2023-04-22T22:56:49.834Z,100344.88
2023-04-22T22:58:54.448Z,100347.66
2023-04-22T23:00:57.864Z,100346.00
2023-04-22T23:03:01.746Z,100346.13
2023-04-22T23:05:05.636Z,100336.56
2023-04-22T23:07:09.243Z,100333.22
2023-04-22T23:09:12.464Z,100330.72
2023-04-22T23:11:15.711Z,100336.28
2023-04-22T23:13:20.970Z,100338.22
2023-04-22T23:15:25.604Z,100329.63
2023-04-22T23:17:28.968Z,100330.59
2023-04-22T23:19:32.631Z,100331.56
2023-04-22T23:21:36.970Z,100323.78
2023-04-22T23:23:41.784Z,100323.91
2023-04-22T23:25:45.383Z,100324.91
2023-04-22T23:27:49.927Z,100320.59
2023-04-22T23:29:53.648Z,100318.91
2023-04-22T23:32:00.406Z,100320.06
2023-04-22T23:34:05.510Z,100320.19
2023-04-22T23:36:11.349Z,100314.94
2023-04-22T23:38:14.638Z,100315.91
2023-04-22T23:40:17.966Z,100314.94
2023-04-22T23:42:21.309Z,100315.06
2023-04-22T23:44:24.654Z,100313.25